Time;durP1;ratioP1;P1;durP2;ratioP2;P2;SDS_P1;SDS_P2;PMS_P1;PMS_P2;Temp;Humidity;BMP_temperature;BMP_pressure;BME280_temperature;BME280_humidity;BME280_pressure;Samples;Min_cycle;Max_cycle;Signal;HPM_P1;HPM_P2
2023/11/06 00:02:04;;;;;;;2.50;0.50;;;10.30;1.00;;;;;;5036685;28;20777;-86
2023/11/06 00:04:30;;;;;;;1.30;0.50;;;10.30;1.00;;;;;;5056517;28;20405;-85
2023/11/06 00:06:55;;;;;;;1.50;0.40;;;9.90;1.00;;;;;;5068877;28;20411;-86
2023/11/06 00:09:21;;;;;;;1.95;0.70;;;10.20;1.00;;;;;;5079549;28;20376;-86
2023/11/06 00:11:47;;;;;;;1.25;0.45;;;10.10;1.00;;;;;;5079204;28;20433;-86
2023/11/06 00:14:13;;;;;;;1.13;0.55;;;10.10;1.00;;;;;;5062859;28;20396;-85
2023/11/06 00:16:38;;;;;;;1.70;0.60;;;10.00;1.00;;;;;;5054269;28;20391;-85
2023/11/06 00:19:05;;;;;;;0.70;0.50;;;9.20;1.00;;;;;;5036504;28;20814;-86
2023/11/06 00:21:31;;;;;;;2.90;0.90;;;10.10;1.00;;;;;;5055292;28;20394;-85
2023/11/06 00:23:56;;;;;;;2.90;0.70;;;10.30;1.00;;;;;;5054180;28;20894;-86
2023/11/06 00:26:22;;;;;;;1.73;0.60;;;10.30;1.00;;;;;;5035951;28;20381;-86
2023/11/06 00:28:48;;;;;;;1.60;0.90;;;10.40;1.00;;;;;;5036571;28;20999;-86
2023/11/06 00:31:15;;;;;;;3.08;0.88;;;10.30;1.00;;;;;;5072716;28;20403;-86
2023/11/06 00:33:41;;;;;;;3.10;1.05;;;10.40;1.00;;;;;;5056431;28;21038;-85
2023/11/06 00:36:16;;;;;;;2.50;0.85;;;10.50;1.00;;;;;;5056257;28;20404;-86
2023/11/06 00:38:42;;;;;;;3.47;1.10;;;10.70;1.00;;;;;;5064543;28;20397;-86
2023/11/06 00:41:07;;;;;;;2.70;0.90;;;10.80;1.00;;;;;;5053930;28;20419;-84
2023/11/06 00:43:33;;;;;;;2.47;0.93;;;10.80;1.00;;;;;;5050249;28;20920;-84
2023/11/06 00:45:58;;;;;;;3.13;0.70;;;10.80;1.00;;;;;;5054037;28;20896;-84
2023/11/06 00:48:24;;;;;;;2.95;1.00;;;10.80;1.00;;;;;;5036107;28;20933;-84
2023/11/06 00:50:49;;;;;;;2.10;0.80;;;10.10;1.00;;;;;;5053655;28;20389;-85
2023/11/06 00:53:15;;;;;;;1.60;1.00;;;10.80;1.00;;;;;;5035851;28;20413;-84
2023/11/06 00:55:41;;;;;;;3.15;1.00;;;10.80;1.00;;;;;;5041835;28;20421;-84
2023/11/06 00:58:07;;;;;;;2.45;0.80;;;10.90;1.00;;;;;;5049380;28;20397;-84
2023/11/06 01:00:33;;;;;;;3.58;0.93;;;11.40;1.00;;;;;;5075700;28;20434;-86
2023/11/06 01:02:59;;;;;;;2.40;0.70;;;11.00;1.00;;;;;;5079203;28;20387;-83
2023/11/06 01:05:24;;;;;;;2.58;0.70;;;11.90;1.00;;;;;;5083043;28;20805;-84
2023/11/06 01:07:51;;;;;;;4.00;1.00;;;11.30;1.00;;;;;;5060751;28;20412;-84
2023/11/06 01:10:18;;;;;;;5.85;1.50;;;11.30;1.00;;;;;;5071901;28;20949;-87
2023/11/06 01:12:44;;;;;;;3.70;1.10;;;11.30;1.00;;;;;;5046483;28;20548;-86
2023/11/06 01:15:16;;;;;;;2.70;0.70;;;11.30;1.00;;;;;;5063135;28;20419;-88
2023/11/06 01:17:42;;;;;;;3.87;0.70;;;11.40;1.00;;;;;;5041928;28;20397;-86
2023/11/06 01:20:09;;;;;;;5.07;1.10;;;11.30;1.00;;;;;;5042953;28;20382;-84
2023/11/06 01:22:35;;;;;;;3.70;0.82;;;11.40;1.00;;;;;;5045768;28;20401;-83
2023/11/06 01:25:01;;;;;;;5.30;0.80;;;11.30;1.00;;;;;;5061290;28;20439;-84
2023/11/06 01:27:27;;;;;;;3.08;0.90;;;13.40;1.00;;;;;;5054563;28;20407;-84
2023/11/06 01:29:52;;;;;;;2.67;1.27;;;11.40;1.00;;;;;;5040692;28;20394;-84
2023/11/06 01:32:20;;;;;;;4.90;1.00;;;11.20;1.00;;;;;;5066230;28;20474;-84
2023/11/06 01:34:46;;;;;;;3.63;0.90;;;11.40;1.00;;;;;;5043887;28;20397;-84
2023/11/06 01:37:12;;;;;;;2.42;1.10;;;11.30;1.00;;;;;;5036323;28;20907;-83
2023/11/06 01:39:37;;;;;;;2.30;0.90;;;11.40;1.00;;;;;;5035972;28;20431;-85
2023/11/06 01:42:03;;;;;;;4.40;1.30;;;11.80;1.00;;;;;;5035029;28;20928;-85
2023/11/06 01:44:28;;;;;;;3.30;1.00;;;11.40;1.00;;;;;;5052638;28;20609;-83
2023/11/06 01:46:54;;;;;;;3.40;0.80;;;11.30;1.00;;;;;;5071361;28;20480;-84
2023/11/06 01:49:21;;;;;;;3.42;0.98;;;11.20;1.00;;;;;;5055490;28;20489;-84
2023/11/06 01:51:48;;;;;;;1.85;0.82;;;10.50;1.00;;;;;;5061201;28;20400;-84
2023/11/06 01:54:15;;;;;;;2.42;0.88;;;11.40;1.00;;;;;;5034683;28;20390;-86
2023/11/06 01:56:42;;;;;;;3.40;1.10;;;11.40;1.00;;;;;;5067448;28;20414;-86
2023/11/06 01:59:08;;;;;;;3.43;0.70;;;11.40;1.00;;;;;;5054040;28;20400;-84
2023/11/06 02:01:37;;;;;;;3.08;1.00;;;11.20;1.00;;;;;;5072692;28;20847;-85
2023/11/06 02:04:06;;;;;;;3.50;1.17;;;11.40;1.00;;;;;;5054533;28;20905;-84
2023/11/06 02:06:33;;;;;;;2.70;0.90;;;11.40;1.00;;;;;;5067627;28;20396;-85
2023/11/06 02:08:59;;;;;;;3.75;1.10;;;11.40;1.00;;;;;;5055062;28;20411;-85
2023/11/06 02:11:24;;;;;;;1.58;0.90;;;11.40;1.00;;;;;;5042660;28;20411;-85
2023/11/06 02:13:50;;;;;;;3.03;1.00;;;11.20;1.00;;;;;;5034426;28;20381;-85
2023/11/06 02:16:15;;;;;;;1.17;0.60;;;11.10;1.00;;;;;;5054519;28;20393;-85
2023/11/06 02:18:41;;;;;;;1.30;0.80;;;11.10;1.00;;;;;;5041523;28;20420;-83
2023/11/06 02:21:07;;;;;;;3.00;0.90;;;10.80;1.00;;;;;;5037581;28;20389;-84
2023/11/06 02:23:33;;;;;;;1.63;0.60;;;11.10;1.00;;;;;;5033540;28;20412;-86
2023/11/06 02:25:59;;;;;;;3.50;0.90;;;10.90;1.00;;;;;;5051785;28;20385;-84
2023/11/06 02:28:24;;;;;;;2.67;0.68;;;10.90;1.00;;;;;;5045204;28;20415;-85
2023/11/06 02:30:52;;;;;;;2.90;1.00;;;10.90;1.00;;;;;;5061355;28;20389;-85
2023/11/06 02:33:19;;;;;;;1.45;1.00;;;10.90;1.00;;;;;;5053925;28;20419;-85
2023/11/06 02:35:44;;;;;;;1.60;0.60;;;10.70;1.00;;;;;;5073713;28;20403;-84
2023/11/06 02:38:10;;;;;;;3.25;0.60;;;10.80;1.00;;;;;;5055354;28;20388;-84
2023/11/06 02:40:36;;;;;;;2.95;0.80;;;10.80;1.00;;;;;;5062513;28;20512;-85
2023/11/06 02:43:01;;;;;;;1.13;0.60;;;10.70;1.00;;;;;;5051935;28;20436;-84
2023/11/06 02:45:27;;;;;;;1.43;0.70;;;10.80;1.00;;;;;;5034981;28;20435;-84
2023/11/06 02:47:52;;;;;;;1.90;0.80;;;10.80;1.00;;;;;;5065798;28;20400;-84
2023/11/06 02:50:20;;;;;;;2.80;0.80;;;10.90;1.00;;;;;;5054241;28;20866;-85
2023/11/06 02:52:46;;;;;;;2.83;0.80;;;10.80;1.00;;;;;;5053918;28;20388;-86
2023/11/06 02:55:11;;;;;;;2.50;0.90;;;10.80;1.00;;;;;;5053624;28;20376;-85
2023/11/06 02:57:37;;;;;;;2.55;0.70;;;10.90;1.00;;;;;;5062465;28;20812;-84
2023/11/06 03:00:11;;;;;;;2.47;0.87;;;10.70;1.00;;;;;;5034587;28;20439;-85
2023/11/06 03:02:37;;;;;;;3.33;1.10;;;10.80;1.00;;;;;;5036892;28;20983;-85
2023/11/06 03:05:03;;;;;;;2.63;0.88;;;10.80;1.00;;;;;;5053549;28;20394;-85
2023/11/06 03:07:30;;;;;;;2.90;1.10;;;10.80;1.00;;;;;;5053666;28;20771;-86
2023/11/06 03:09:56;;;;;;;4.53;1.00;;;10.80;1.00;;;;;;5071515;28;20759;-85
2023/11/06 03:12:21;;;;;;;3.63;0.80;;;10.80;1.00;;;;;;5054364;28;20380;-86
2023/11/06 03:14:47;;;;;;;2.17;1.00;;;10.80;1.00;;;;;;5047447;28;20480;-85
2023/11/06 03:17:13;;;;;;;3.20;0.90;;;10.80;1.00;;;;;;5070990;28;20377;-85
2023/11/06 03:19:38;;;;;;;2.08;0.90;;;11.00;1.00;;;;;;5065094;28;20513;-85
2023/11/06 03:22:04;;;;;;;3.30;1.10;;;10.00;1.00;;;;;;5061420;28;20696;-85
2023/11/06 03:24:30;;;;;;;2.67;0.80;;;10.50;1.00;;;;;;5067658;28;20406;-84
2023/11/06 03:26:55;;;;;;;1.93;0.67;;;11.00;1.00;;;;;;5090888;28;20418;-84
2023/11/06 03:29:21;;;;;;;4.47;1.10;;;11.00;1.00;;;;;;5060919;28;20413;-86
2023/11/06 03:31:46;;;;;;;2.13;0.90;;;11.10;1.00;;;;;;5072063;28;20405;-85
2023/11/06 03:34:12;;;;;;;2.35;0.90;;;11.20;1.00;;;;;;5065765;28;20400;-86
2023/11/06 03:36:41;;;;;;;2.60;0.80;;;11.00;1.00;;;;;;5072095;28;20410;-86
2023/11/06 03:39:08;;;;;;;2.50;0.67;;;11.10;1.00;;;;;;5056565;28;20940;-85
2023/11/06 03:41:33;;;;;;;1.70;0.80;;;11.20;1.00;;;;;;5055599;28;20393;-85
2023/11/06 03:43:59;;;;;;;2.65;1.10;;;11.10;1.00;;;;;;5036235;28;20751;-85
2023/11/06 03:46:25;;;;;;;2.15;0.75;;;11.00;1.00;;;;;;5053680;28;20733;-85
2023/11/06 03:48:51;;;;;;;1.98;0.70;;;11.10;1.00;;;;;;5036593;28;20409;-86
2023/11/06 03:51:16;;;;;;;1.88;0.80;;;11.10;1.00;;;;;;5042978;28;20390;-85
2023/11/06 03:53:42;;;;;;;2.88;0.80;;;11.10;1.00;;;;;;5072802;28;20883;-85
2023/11/06 03:56:09;;;;;;;2.55;0.70;;;11.10;1.00;;;;;;5062167;28;20376;-85
2023/11/06 03:58:36;;;;;;;1.10;0.60;;;11.20;1.00;;;;;;5069731;28;20498;-87
2023/11/06 04:01:03;;;;;;;3.90;1.20;;;11.20;1.00;;;;;;5086476;28;20395;-85
2023/11/06 04:03:28;;;;;;;1.70;0.73;;;11.30;1.00;;;;;;5049469;28;20444;-86
2023/11/06 04:05:54;;;;;;;1.90;0.90;;;11.30;1.00;;;;;;5053808;28;20389;-86
2023/11/06 04:08:21;;;;;;;2.63;0.80;;;11.20;1.00;;;;;;5052676;28;20496;-87
2023/11/06 04:10:48;;;;;;;2.83;0.82;;;11.20;1.00;;;;;;5052384;28;20438;-86
2023/11/06 04:13:13;;;;;;;2.10;0.60;;;11.30;1.00;;;;;;5055944;28;20416;-85
2023/11/06 04:15:39;;;;;;;1.30;0.90;;;11.00;1.00;;;;;;5077894;28;20381;-85
2023/11/06 04:18:05;;;;;;;2.40;1.10;;;11.30;1.00;;;;;;5077705;28;20401;-86
2023/11/06 04:20:30;;;;;;;2.60;0.60;;;11.30;1.00;;;;;;5078463;28;20401;-86
2023/11/06 04:22:56;;;;;;;2.50;0.70;;;11.20;1.00;;;;;;5069887;28;20414;-86
2023/11/06 04:25:21;;;;;;;2.40;0.80;;;11.60;1.00;;;;;;5098727;28;20485;-85
2023/11/06 04:27:47;;;;;;;3.90;0.63;;;11.10;1.00;;;;;;5080421;28;20396;-85
2023/11/06 04:30:13;;;;;;;2.80;0.60;;;11.20;1.00;;;;;;5080972;28;20376;-85
2023/11/06 04:32:38;;;;;;;1.95;0.73;;;11.20;1.00;;;;;;5074677;28;20401;-85
2023/11/06 04:35:05;;;;;;;3.77;0.70;;;11.10;1.00;;;;;;5078085;28;20408;-86
2023/11/06 04:37:31;;;;;;;5.23;1.13;;;11.20;1.00;;;;;;5061185;28;20405;-86
2023/11/06 04:39:57;;;;;;;2.67;0.70;;;11.20;1.00;;;;;;5060687;28;20416;-85
2023/11/06 04:42:23;;;;;;;1.98;0.80;;;11.10;1.00;;;;;;5061249;28;20390;-87
2023/11/06 04:44:49;;;;;;;2.25;0.50;;;11.20;1.00;;;;;;5082967;28;20475;-86
2023/11/06 04:47:14;;;;;;;2.97;0.60;;;11.10;1.00;;;;;;5081218;28;20407;-86
2023/11/06 04:49:40;;;;;;;1.27;0.55;;;11.10;1.00;;;;;;5062500;28;20385;-86
2023/11/06 04:52:06;;;;;;;1.60;0.60;;;11.10;1.00;;;;;;5061066;28;20406;-87
2023/11/06 04:54:31;;;;;;;0.70;0.60;;;10.80;1.00;;;;;;5077798;28;20384;-85
2023/11/06 04:56:57;;;;;;;2.30;0.90;;;10.90;1.00;;;;;;5058593;28;20443;-85
2023/11/06 04:59:22;;;;;;;2.88;0.70;;;10.90;1.00;;;;;;5082862;28;20445;-85
2023/11/06 05:01:48;;;;;;;2.47;0.50;;;11.10;1.00;;;;;;5058692;28;20445;-86
2023/11/06 05:04:16;;;;;;;1.60;0.50;;;11.10;1.00;;;;;;5055065;28;20945;-86
2023/11/06 05:06:41;;;;;;;2.80;0.40;;;11.00;1.00;;;;;;5038170;28;20443;-86
2023/11/06 05:09:08;;;;;;;2.23;0.90;;;11.00;1.00;;;;;;5038587;28;20389;-86
2023/11/06 05:11:34;;;;;;;3.33;0.60;;;10.60;1.00;;;;;;5057297;28;20379;-86
2023/11/06 05:14:00;;;;;;;1.27;0.70;;;10.90;1.00;;;;;;5079816;28;20436;-87
2023/11/06 05:16:27;;;;;;;1.97;0.70;;;10.90;1.00;;;;;;5064970;28;20384;-86
2023/11/06 05:18:52;;;;;;;0.70;0.50;;;10.90;1.00;;;;;;5063987;28;20396;-86
2023/11/06 05:21:25;;;;;;;1.60;0.40;;;10.90;1.00;;;;;;5053468;28;20401;-86
2023/11/06 05:23:51;;;;;;;1.88;0.50;;;10.90;1.00;;;;;;5035295;28;20409;-86
2023/11/06 05:26:18;;;;;;;1.00;0.57;;;10.90;1.00;;;;;;5035962;28;20389;-86
2023/11/06 05:28:43;;;;;;;0.60;0.40;;;11.00;1.00;;;;;;5065913;28;20406;-85
2023/11/06 05:31:09;;;;;;;1.93;0.90;;;11.10;1.00;;;;;;5056097;28;20392;-86
2023/11/06 05:33:35;;;;;;;0.77;0.50;;;11.00;1.00;;;;;;5041171;28;20402;-86
2023/11/06 05:36:01;;;;;;;1.85;0.60;;;10.60;1.00;;;;;;5036896;28;20399;-86
2023/11/06 05:38:27;;;;;;;0.97;0.43;;;11.20;1.00;;;;;;5037147;28;20386;-86
2023/11/06 05:40:52;;;;;;;1.70;0.50;;;11.30;1.00;;;;;;5036971;28;20389;-85
2023/11/06 05:43:18;;;;;;;1.67;0.60;;;11.30;1.00;;;;;;5041657;28;20869;-85
2023/11/06 05:45:44;;;;;;;1.20;0.60;;;11.30;1.00;;;;;;5068229;28;20391;-85
2023/11/06 05:48:09;;;;;;;1.73;0.50;;;11.30;1.00;;;;;;5054254;28;20541;-85
2023/11/06 05:50:36;;;;;;;1.23;0.60;;;11.20;1.00;;;;;;5055631;28;20470;-86
2023/11/06 05:53:01;;;;;;;3.05;0.70;;;11.20;1.00;;;;;;5055265;28;20466;-86
2023/11/06 05:55:27;;;;;;;1.63;0.60;;;11.40;1.00;;;;;;5041738;28;20479;-87
2023/11/06 05:57:52;;;;;;;1.20;0.50;;;11.40;1.00;;;;;;5035314;28;20422;-86
2023/11/06 06:00:18;;;;;;;2.10;0.50;;;11.40;1.00;;;;;;5034314;28;20377;-86
2023/11/06 06:02:44;;;;;;;2.50;0.60;;;11.40;1.00;;;;;;5035847;28;20393;-85
2023/11/06 06:05:10;;;;;;;1.67;0.60;;;11.40;1.00;;;;;;5036357;28;20893;-86
2023/11/06 06:07:36;;;;;;;2.50;0.50;;;11.40;1.00;;;;;;5046617;28;20409;-84
2023/11/06 06:10:03;;;;;;;1.80;0.60;;;11.40;1.00;;;;;;5054772;28;20479;-86
2023/11/06 06:12:29;;;;;;;0.50;0.40;;;11.00;1.00;;;;;;5054690;28;20805;-86
2023/11/06 06:14:55;;;;;;;2.40;0.70;;;11.40;1.00;;;;;;5054169;28;20384;-86
2023/11/06 06:17:21;;;;;;;1.20;0.57;;;11.30;1.00;;;;;;5052804;28;20404;-86
2023/11/06 06:19:47;;;;;;;1.58;0.60;;;11.20;1.00;;;;;;5071416;28;20399;-85
2023/11/06 06:22:13;;;;;;;1.70;0.50;;;11.40;1.00;;;;;;5076865;28;20380;-87
2023/11/06 06:24:39;;;;;;;2.20;0.60;;;11.30;1.00;;;;;;5077046;28;20378;-87
2023/11/06 06:27:05;;;;;;;2.70;0.60;;;11.30;1.00;;;;;;5070016;28;20470;-86
2023/11/06 06:29:31;;;;;;;0.70;0.40;;;10.90;1.00;;;;;;5039379;28;20445;-85
2023/11/06 06:31:56;;;;;;;1.37;0.50;;;11.40;1.00;;;;;;5036182;28;20485;-85
2023/11/06 06:34:23;;;;;;;1.30;0.80;;;11.40;1.00;;;;;;5053560;28;20468;-86
2023/11/06 06:36:49;;;;;;;2.13;0.80;;;11.20;1.00;;;;;;5039009;28;20474;-86
2023/11/06 06:39:15;;;;;;;1.30;0.60;;;11.20;1.00;;;;;;5054249;28;20427;-87
2023/11/06 06:41:41;;;;;;;1.50;0.60;;;11.40;1.00;;;;;;5054183;28;20384;-86
2023/11/06 06:44:07;;;;;;;1.70;0.60;;;11.30;1.00;;;;;;5033864;28;20389;-86
2023/11/06 06:46:32;;;;;;;2.00;0.60;;;10.90;1.00;;;;;;5033843;28;20456;-84
2023/11/06 06:48:58;;;;;;;2.90;0.50;;;10.70;1.00;;;;;;5034923;28;20913;-85
2023/11/06 06:51:23;;;;;;;1.73;0.50;;;11.30;1.00;;;;;;5049938;28;20410;-84
2023/11/06 06:53:51;;;;;;;1.63;0.40;;;11.10;1.00;;;;;;5054666;28;20379;-84
2023/11/06 06:56:17;;;;;;;1.40;0.57;;;11.10;1.00;;;;;;5068504;28;20745;-84
2023/11/06 06:58:42;;;;;;;0.70;0.40;;;11.00;1.00;;;;;;5062133;28;20414;-84
2023/11/06 07:01:09;;;;;;;2.28;0.60;;;11.10;1.00;;;;;;5033306;28;20778;-84
2023/11/06 07:03:36;;;;;;;1.23;0.63;;;11.00;1.00;;;;;;5033420;28;20397;-85
2023/11/06 07:06:04;;;;;;;2.30;0.80;;;11.00;1.00;;;;;;5037886;28;20402;-84
2023/11/06 07:08:30;;;;;;;2.97;0.60;;;10.90;1.00;;;;;;5044798;28;20413;-85
2023/11/06 07:10:55;;;;;;;1.77;0.75;;;10.70;1.00;;;;;;5034459;28;20390;-85
2023/11/06 07:13:21;;;;;;;2.55;0.40;;;10.90;1.00;;;;;;5034160;28;20381;-85
2023/11/06 07:15:46;;;;;;;3.07;0.70;;;10.70;1.00;;;;;;5034203;28;20412;-85
2023/11/06 07:18:13;;;;;;;1.80;0.60;;;10.80;1.00;;;;;;5058594;28;20917;-85
2023/11/06 07:20:38;;;;;;;1.30;0.40;;;11.00;1.00;;;;;;5072604;28;20387;-86
2023/11/06 07:23:04;;;;;;;1.10;0.50;;;10.80;1.00;;;;;;5077110;28;20494;-84
2023/11/06 07:25:30;;;;;;;0.80;0.40;;;11.00;1.00;;;;;;5058399;28;20418;-86
2023/11/06 07:27:56;;;;;;;3.55;0.50;;;10.90;1.00;;;;;;5076849;28;20411;-86
2023/11/06 07:30:23;;;;;;;1.00;0.50;;;11.20;1.00;;;;;;5069134;22;20928;-86
2023/11/06 07:32:49;;;;;;;2.17;0.57;;;11.10;1.00;;;;;;5055672;28;20380;-85
2023/11/06 07:35:15;;;;;;;1.30;0.60;;;11.50;1.00;;;;;;5054964;28;20377;-85
2023/11/06 07:37:41;;;;;;;1.90;0.55;;;11.30;1.00;;;;;;5049136;28;20606;-85
2023/11/06 07:40:13;;;;;;;2.58;0.70;;;11.30;1.00;;;;;;5045049;28;20401;-86
2023/11/06 07:42:39;;;;;;;1.30;0.60;;;11.40;1.00;;;;;;5047808;28;20380;-85
2023/11/06 07:45:07;;;;;;;1.02;0.60;;;11.30;1.00;;;;;;5056307;28;20410;-85
2023/11/06 07:47:33;;;;;;;1.92;0.50;;;11.50;1.00;;;;;;5049224;28;20414;-85
2023/11/06 07:49:59;;;;;;;2.70;0.50;;;10.70;1.00;;;;;;5054825;28;20392;-86
2023/11/06 07:52:25;;;;;;;4.50;0.73;;;11.00;1.00;;;;;;5060495;28;20855;-87
2023/11/06 07:54:50;;;;;;;1.40;0.50;;;12.20;1.00;;;;;;5064313;28;20435;-87
2023/11/06 07:57:18;;;;;;;1.20;0.40;;;11.40;1.00;;;;;;5070060;28;20413;-86
2023/11/06 07:59:44;;;;;;;1.63;0.60;;;10.90;1.00;;;;;;5066153;28;20397;-84
2023/11/06 08:02:10;;;;;;;1.37;0.50;;;11.40;1.00;;;;;;5053596;28;20414;-85
2023/11/06 08:04:45;;;;;;;2.15;0.70;;;11.70;1.00;;;;;;5023980;28;20402;-86
2023/11/06 08:07:13;;;;;;;2.03;1.20;;;11.70;1.00;;;;;;5045549;28;20425;-85
2023/11/06 08:09:39;;;;;;;2.45;1.20;;;11.40;1.00;;;;;;5047179;28;20481;-85
2023/11/06 08:12:09;;;;;;;0.60;0.50;;;11.60;1.00;;;;;;5042298;28;20425;-85
2023/11/06 08:14:34;;;;;;;1.98;1.20;;;11.70;1.00;;;;;;5064377;28;20393;-84
2023/11/06 08:17:00;;;;;;;1.20;0.80;;;11.60;1.00;;;;;;5046175;28;20403;-86
2023/11/06 08:19:26;;;;;;;1.20;0.60;;;11.60;1.00;;;;;;5047283;28;20383;-85
2023/11/06 08:21:51;;;;;;;0.90;0.60;;;11.70;1.00;;;;;;5051744;28;20391;-85
2023/11/06 08:24:17;;;;;;;2.13;0.70;;;11.60;1.00;;;;;;5051082;28;20443;-86
2023/11/06 08:26:45;;;;;;;1.95;0.60;;;10.50;1.00;;;;;;5057331;28;20390;-86
2023/11/06 08:29:11;;;;;;;1.00;0.60;;;11.70;1.00;;;;;;5058534;28;20402;-85
2023/11/06 08:31:37;;;;;;;0.93;0.70;;;11.40;1.00;;;;;;5058201;28;20407;-86
2023/11/06 08:34:03;;;;;;;1.15;0.85;;;11.40;1.00;;;;;;5058085;28;20389;-87
2023/11/06 08:36:29;;;;;;;0.80;0.40;;;11.60;1.00;;;;;;5055400;28;20387;-87
2023/11/06 08:38:54;;;;;;;1.50;0.50;;;11.20;1.00;;;;;;5044413;28;20413;-86
2023/11/06 08:41:20;;;;;;;1.27;0.60;;;11.50;1.00;;;;;;5049841;28;20388;-86
2023/11/06 08:43:46;;;;;;;1.20;0.50;;;11.50;1.00;;;;;;5053617;28;20391;-87
2023/11/06 08:46:12;;;;;;;1.33;0.50;;;11.50;1.00;;;;;;5044147;28;20451;-87
2023/11/06 08:48:41;;;;;;;2.40;0.70;;;11.50;1.00;;;;;;5044423;28;20922;-86
2023/11/06 08:51:06;;;;;;;1.30;0.60;;;11.70;1.00;;;;;;5050443;28;20384;-86
2023/11/06 08:53:32;;;;;;;0.80;0.50;;;11.70;1.00;;;;;;5043330;28;20402;-86
2023/11/06 08:55:57;;;;;;;1.70;0.40;;;11.80;1.00;;;;;;5053246;28;20559;-85
2023/11/06 08:58:25;;;;;;;1.30;0.50;;;11.80;1.00;;;;;;5055346;28;20418;-86
2023/11/06 09:00:50;;;;;;;1.00;0.60;;;11.80;1.00;;;;;;5057112;28;20454;-86
2023/11/06 09:03:16;;;;;;;0.80;0.40;;;11.70;1.00;;;;;;5056290;28;20379;-87
2023/11/06 09:05:42;;;;;;;1.40;0.50;;;11.80;1.00;;;;;;5057018;28;20394;-84
2023/11/06 09:08:08;;;;;;;0.70;0.40;;;12.00;1.00;;;;;;5038814;28;20439;-85
2023/11/06 09:10:34;;;;;;;1.20;0.50;;;12.40;1.00;;;;;;5055540;28;20402;-85
2023/11/06 09:13:01;;;;;;;1.60;0.50;;;12.10;1.00;;;;;;5057138;28;20379;-86
2023/11/06 09:15:26;;;;;;;0.87;0.50;;;12.00;1.00;;;;;;5056269;28;20411;-84
2023/11/06 09:17:53;;;;;;;1.50;0.50;;;11.70;1.00;;;;;;5057686;28;20387;-85
2023/11/06 09:20:19;;;;;;;0.73;0.40;;;12.00;1.00;;;;;;5056980;28;20458;-85
2023/11/06 09:22:46;;;;;;;2.20;0.50;;;12.10;1.00;;;;;;5054586;28;20395;-84
2023/11/06 09:25:12;;;;;;;1.10;0.40;;;12.20;1.00;;;;;;5056120;28;20410;-85
2023/11/06 09:27:38;;;;;;;0.80;0.30;;;12.10;1.00;;;;;;5044418;28;20412;-85
2023/11/06 09:30:07;;;;;;;1.00;0.60;;;12.10;1.00;;;;;;5037403;28;20399;-85
2023/11/06 09:32:32;;;;;;;1.70;0.60;;;12.20;1.00;;;;;;5048896;28;20433;-85
2023/11/06 09:35:00;;;;;;;2.00;1.00;;;12.30;1.00;;;;;;5037066;28;20401;-85
2023/11/06 09:37:26;;;;;;;1.10;0.47;;;12.50;1.00;;;;;;5036951;28;20430;-86
2023/11/06 09:39:51;;;;;;;1.73;0.57;;;12.60;1.00;;;;;;5035837;28;20898;-85
2023/11/06 09:42:17;;;;;;;1.63;0.50;;;12.60;1.00;;;;;;5051665;28;20462;-86
2023/11/06 09:44:46;;;;;;;1.40;0.40;;;12.60;1.00;;;;;;5035804;28;20406;-86
2023/11/06 09:47:11;;;;;;;0.60;0.40;;;13.40;1.00;;;;;;5055338;28;20441;-85
2023/11/06 09:49:52;;;;;;;1.30;0.60;;;12.60;1.00;;;;;;5054767;28;20407;-85
2023/11/06 09:52:18;;;;;;;0.85;0.43;;;12.90;1.00;;;;;;5053993;28;20383;-85
2023/11/06 09:54:47;;;;;;;1.40;0.70;;;13.00;1.00;;;;;;5051687;28;20375;-84
2023/11/06 09:57:14;;;;;;;0.70;0.50;;;13.10;1.00;;;;;;5039571;28;20419;-85
2023/11/06 09:59:40;;;;;;;1.38;0.68;;;13.20;1.00;;;;;;5040572;28;20387;-86
2023/11/06 10:02:06;;;;;;;1.50;0.60;;;13.50;1.00;;;;;;5040194;28;20447;-86
2023/11/06 10:04:33;;;;;;;1.25;0.80;;;12.90;1.00;;;;;;5040469;28;20391;-86
2023/11/06 10:06:59;;;;;;;1.20;0.50;;;12.90;1.00;;;;;;5040552;28;20430;-85
2023/11/06 10:09:25;;;;;;;0.80;0.40;;;13.00;1.00;;;;;;5049336;28;20427;-86
2023/11/06 10:11:51;;;;;;;0.98;0.70;;;12.70;1.00;;;;;;5048196;28;20379;-84
2023/11/06 10:14:17;;;;;;;1.10;1.00;;;13.00;1.00;;;;;;5054759;28;20399;-85
2023/11/06 10:16:42;;;;;;;2.10;0.60;;;12.70;1.00;;;;;;5046785;28;20486;-87
2023/11/06 10:19:12;;;;;;;1.37;0.47;;;12.60;1.00;;;;;;5045383;28;20467;-87
2023/11/06 10:21:41;;;;;;;1.80;0.40;;;12.60;1.00;;;;;;5036995;28;20444;-85
2023/11/06 10:24:07;;;;;;;2.10;0.60;;;12.70;1.00;;;;;;5037637;28;20450;-85
2023/11/06 10:26:33;;;;;;;2.95;1.20;;;12.70;1.00;;;;;;5034690;28;20576;-85
2023/11/06 10:29:13;;;;;;;1.30;0.60;;;12.60;1.00;;;;;;5036950;28;20942;-84
2023/11/06 10:31:40;;;;;;;1.35;0.52;;;12.90;1.00;;;;;;5033170;28;20387;-85
2023/11/06 10:34:29;;;;;;;3.90;0.60;;;14.30;1.00;;;;;;5038962;28;20387;-87
2023/11/06 10:37:10;;;;;;;3.00;0.80;;;12.90;1.00;;;;;;5034358;28;20394;-85
2023/11/06 10:39:51;;;;;;;2.20;0.80;;;13.10;1.00;;;;;;5034769;28;20417;-85
2023/11/06 10:42:19;;;;;;;1.00;0.60;;;13.10;1.00;;;;;;5048242;28;20407;-86
2023/11/06 10:44:55;;;;;;;3.83;0.70;;;12.90;1.00;;;;;;5050618;28;20371;-85
2023/11/06 10:47:34;;;;;;;1.50;1.20;;;12.80;1.00;;;;;;5040861;28;20399;-86
2023/11/06 10:50:07;;;;;;;1.20;0.77;;;12.80;1.00;;;;;;5033063;28;20379;-86
2023/11/06 10:52:34;;;;;;;1.60;0.70;;;12.50;1.00;;;;;;5033711;28;20390;-86
2023/11/06 10:55:03;;;;;;;1.08;0.50;;;12.30;1.00;;;;;;5037472;28;20386;-86
2023/11/06 10:57:33;;;;;;;2.00;0.80;;;12.10;1.00;;;;;;5045673;28;20391;-86
2023/11/06 11:00:01;;;;;;;3.40;0.80;;;12.20;1.00;;;;;;5039826;28;20387;-86
2023/11/06 11:02:44;;;;;;;2.60;0.60;;;12.30;1.00;;;;;;5038829;28;20832;-86
2023/11/06 11:05:12;;;;;;;1.00;0.65;;;12.50;1.00;;;;;;5042971;28;21016;-85
2023/11/06 11:07:41;;;;;;;2.00;0.70;;;12.40;1.00;;;;;;5049641;28;20487;-86
2023/11/06 11:10:17;;;;;;;2.63;1.00;;;12.60;1.00;;;;;;5053119;28;20379;-85
2023/11/06 11:12:49;;;;;;;1.50;0.60;;;12.50;1.00;;;;;;5050688;28;20395;-86
2023/11/06 11:15:21;;;;;;;2.75;0.90;;;12.50;1.00;;;;;;5052662;28;20959;-84
2023/11/06 11:18:04;;;;;;;0.85;0.60;;;12.40;1.00;;;;;;5056960;28;20414;-84
2023/11/06 11:20:49;;;;;;;1.30;0.60;;;12.40;1.00;;;;;;5057978;28;20405;-86
2023/11/06 11:23:15;;;;;;;2.30;0.60;;;12.60;1.00;;;;;;5059127;28;20395;-84
2023/11/06 11:25:58;;;;;;;1.10;0.70;;;12.60;1.00;;;;;;5059707;28;20436;-85
2023/11/06 11:28:26;;;;;;;1.95;1.00;;;12.50;1.00;;;;;;5059862;28;20414;-85
2023/11/06 11:30:52;;;;;;;1.20;0.70;;;12.60;1.00;;;;;;5060006;28;20382;-85
2023/11/06 11:33:54;;;;;;;1.42;0.60;;;12.90;1.00;;;;;;5060414;28;20395;-84
2023/11/06 11:36:27;;;;;;;2.17;0.70;;;12.70;1.00;;;;;;5059465;28;20398;-85
2023/11/06 11:38:53;;;;;;;1.27;0.70;;;12.80;1.00;;;;;;5059206;28;20429;-84
2023/11/06 11:41:19;;;;;;;0.95;0.50;;;12.80;1.00;;;;;;5059351;28;20395;-85
2023/11/06 11:43:46;;;;;;;1.60;0.60;;;12.90;1.00;;;;;;5059838;28;20387;-85
2023/11/06 11:46:35;;;;;;;1.80;0.40;;;13.00;1.00;;;;;;5054515;28;20447;-85
2023/11/06 11:49:00;;;;;;;0.63;0.40;;;13.50;1.00;;;;;;5055467;28;20412;-85
2023/11/06 11:51:48;;;;;;;0.65;0.40;;;13.40;1.00;;;;;;5049898;28;20386;-85
2023/11/06 11:54:30;;;;;;;1.10;0.60;;;13.20;1.00;;;;;;5047091;28;20363;-86
2023/11/06 11:57:03;;;;;;;0.90;0.40;;;13.10;1.00;;;;;;5054609;28;20375;-84
2023/11/06 11:59:30;;;;;;;1.08;0.60;;;13.00;1.00;;;;;;5055803;28;20401;-86
2023/11/06 12:01:58;;;;;;;1.27;0.40;;;13.30;1.00;;;;;;5055218;28;20399;-84
2023/11/06 12:04:25;;;;;;;0.60;0.50;;;13.00;1.00;;;;;;5043820;28;20395;-85
2023/11/06 12:07:03;;;;;;;0.60;0.43;;;13.00;1.00;;;;;;5052655;28;20387;-86
2023/11/06 12:09:51;;;;;;;2.15;0.50;;;13.20;1.00;;;;;;5043348;28;20379;-85
2023/11/06 12:12:22;;;;;;;1.60;0.70;;;13.10;1.00;;;;;;5042184;28;21154;-86
2023/11/06 12:14:48;;;;;;;0.93;0.70;;;13.30;1.00;;;;;;5038868;28;20376;-86
2023/11/06 12:17:33;;;;;;;1.10;0.65;;;13.20;1.00;;;;;;5036233;28;20391;-85
2023/11/06 12:20:00;;;;;;;0.88;0.47;;;13.20;1.00;;;;;;5033549;28;20590;-83
2023/11/06 12:22:31;;;;;;;1.20;0.60;;;13.10;1.00;;;;;;5040067;28;20407;-84
2023/11/06 12:24:57;;;;;;;1.90;0.50;;;13.20;1.00;;;;;;5040060;28;20391;-84
2023/11/06 12:27:36;;;;;;;0.68;0.35;;;13.30;1.00;;;;;;5040436;28;20497;-85
2023/11/06 12:30:07;;;;;;;0.40;0.30;;;13.50;1.00;;;;;;5057580;28;20404;-85
2023/11/06 12:32:34;;;;;;;2.20;0.50;;;14.00;1.00;;;;;;5054106;28;20417;-86
2023/11/06 12:35:03;;;;;;;0.77;0.40;;;13.80;1.00;;;;;;5053714;28;20385;-85
2023/11/06 12:37:30;;;;;;;2.13;0.50;;;14.00;1.00;;;;;;5045694;28;20906;-84
2023/11/06 12:40:13;;;;;;;0.90;0.50;;;14.50;1.00;;;;;;5044480;28;20398;-84
2023/11/06 12:42:41;;;;;;;0.50;0.40;;;14.20;1.00;;;;;;5043059;28;20418;-84
2023/11/06 12:45:24;;;;;;;2.10;0.60;;;13.90;1.00;;;;;;5053497;28;20387;-83
2023/11/06 12:47:52;;;;;;;1.53;0.60;;;13.80;1.00;;;;;;5053317;28;20417;-85
2023/11/06 12:50:18;;;;;;;1.23;0.43;;;13.50;1.00;;;;;;5037910;28;20425;-84
2023/11/06 12:52:44;;;;;;;1.70;0.60;;;13.40;1.00;;;;;;5040216;28;20441;-86
2023/11/06 12:55:15;;;;;;;1.40;0.50;;;13.20;1.00;;;;;;5041175;28;20441;-83
2023/11/06 12:57:44;;;;;;;0.80;0.70;;;13.30;1.00;;;;;;5037295;28;20467;-84
2023/11/06 13:00:21;;;;;;;1.90;0.40;;;13.20;1.00;;;;;;5031104;28;21143;-83